ADDS METAR Data INFO
IDs: Format: Raw Decoded Include TAF

Data at: 0257 UTC 17 Jan 2018

KEWR 170251Z 02006KT 10SM FEW020 SCT035 BKN120 OVC150 01/M02 A3037 RMK AO2 SLP284 T00061022 56013
KEWR 170151Z 03007KT 10SM FEW024 SCT031 BKN100 OVC170 01/M03 A3039 RMK AO2 SLP289 T00061028
KEWR 170051Z 04005KT 10SM SCT022 BKN030 BKN075 OVC180 01/M03 A3039 RMK AO2 SLP291 T00111028
KEWR 170022Z 02007KT 10SM FEW010 SCT022 BKN031 OVC150 01/M03 A3040 RMK AO2 T00061028
KEWR 162351Z 02006KT 10SM FEW008 SCT017 OVC028 01/M03 A3041 RMK AO2 SLP297 T00111028 10033 20011 55000
KEWR 162251Z 02007KT 10SM FEW008 BKN015 OVC030 02/M03 A3041 RMK AO2 SLP295 T00171028
KEWR 162151Z 06005KT 10SM FEW009 BKN015 OVC028 03/00 A3040 RMK AO2 SLP294 T00330000
KEWR 162051Z 06005KT 10SM FEW009 BKN017 OVC025 03/M01 A3041 RMK AO2 SLP297 T00331006 56009
KEWR 161951Z 12005KT 10SM FEW009 BKN015 OVC023 03/M01 A3042 RMK AO2 SLP299 BKN V SCT T00331006
KEWR 161851Z 06005KT 9SM FEW009 BKN015 OVC025 03/M01 A3043 RMK AO2 SLP302 CIG 013V018 T00281011
KEWR 161825Z 11004KT 9SM SCT009 BKN013 OVC030 03/M01 A3043 RMK AO2 CIG 011V016 T00281011
KEWR 161751Z 08005KT 9SM BKN009 OVC013 02/M02 A3044 RMK AO2 SLP306 T00221017 10022 21033 58023
KEWR 161651Z 00000KT 10SM BKN009 OVC013 01/M02 A3047 RMK AO2 SLP316 T00111022
KEWR 161647Z 00000KT 10SM BKN009 OVC013 01/M02 A3047 RMK AO2
KEWR 161606Z 00000KT 10SM BKN010 BKN031 OVC070 01/M03 A3050 RMK AO2 BKN010 V SCT T00061033
KEWR 161551Z 00000KT 10SM SCT010 BKN032 OVC070 00/M04 A3050 RMK AO2 SLP326 SCT V BKN T00001039
KEWR 161451Z 00000KT 10SM FEW018 SCT032 OVC075 M01/M05 A3050 RMK AO2 SLP329 T10111050 58000
KEWR 161351Z 06003KT 10SM FEW015 BKN032 OVC075 M02/M06 A3051 RMK AO2 SLP330 T10171061
KEWR 161251Z 03005KT 10SM SCT013 OVC030 M03/M07 A3051 RMK AO2 SLP332 T10281072
KEWR 161203Z 01005KT 10SM SCT013 OVC030 M03/M07 A3051 RMK AO2 T10281072
KEWR 161151Z 01007KT 10SM BKN012 OVC034 M03/M07 A3051 RMK AO2 SLP329 BKN V SCT T10331072 11028 21056 55002
KEWR 161051Z 04005KT 10SM OVC012 M03/M08 A3050 RMK AO2 SLP327 T10331078
KEWR 161025Z 05005KT 10SM OVC014 M03/M08 A3050 RMK AO2 T10331083
KEWR 160951Z 36003KT 10SM OVC016 M03/M08 A3051 RMK AO2 SLP331 T10331083
KEWR 160851Z 36003KT 10SM OVC016 M04/M08 A3051 RMK AO2 SLP331 T10391083 52008
KEWR 160751Z 01006KT 10SM OVC016 M04/M08 A3051 RMK AO2 SLP331 T10391083
KEWR 160651Z 02004KT 10SM BKN018 BKN250 M05/M08 A3049 RMK AO2 SLP323 T10501083
KEWR 160551Z 02005KT 10SM BKN020 BKN250 M05/M08 A3049 RMK AO2 SLP323 T10501083 11022 21056 58010
KEWR 160451Z 36005KT 10SM BKN020 BKN250 M04/M08 A3051 RMK AO2 SLP329 T10441078 400001094
KEWR 160421Z 02005KT 10SM BKN020 BKN250 M04/M08 A3051 RMK AO2 T10441083
KEWR 160351Z 02005KT 10SM SCT020 BKN250 M06/M09 A3052 RMK AO2 SLP333 T10561089
KEWR 160251Z 08003KT 10SM FEW015 FEW035 SCT250 M03/M07 A3052 RMK AO2 SLP333 FU FEW015 T10331072 58007
KEWR 160151Z 04005KT 10SM FEW035 FEW140 SCT250 M03/M08 A3052 RMK AO2 SLP333 T10331078
KEWR 160051Z 03005KT 10SM FEW035 FEW140 SCT250 M04/M08 A3055 RMK AO2 SLP343 T10441083
KEWR 152351Z 06007KT 10SM FEW035 SCT140 SCT250 M02/M08 A3054 RMK AO2 SLP339 T10221078 10000 21022 50005
KEWR 152251Z 07006KT 10SM FEW040 BKN140 BKN250 M02/M07 A3054 RMK AO2 SLP340 T10171072
KEWR 152151Z 06006KT 10SM FEW030 BKN048 BKN250 M01/M08 A3053 RMK AO2 SLP336 T10111078
KEWR 152051Z 03010KT 10SM SCT030 SCT250 M01/M09 A3052 RMK AO2 SLP334 T10061089 56019
KEWR 151951Z 03009KT 10SM SCT030 SCT250 M01/M08 A3053 RMK AO2 SLP337 T10061083
KEWR 151851Z 04011KT 10SM SCT029 SCT250 00/M08 A3054 RMK AO2 SLP341 T00001083
KEWR 151816Z 02011KT 10SM SCT029 SCT250 M01/M09 A3056 RMK AO2 T10061089
KEWR 151751Z 04010KT 10SM BKN029 BKN250 M01/M09 A3058 RMK AO2 SLP353 T10061089 11006 21089 58030
KEWR 151749Z 03010KT 10SM BKN029 BKN250 M01/M09 A3058 RMK AO2
KEWR 151651Z 05009KT 10SM SCT030 BKN250 M02/M09 A3061 RMK AO2 SLP363 T10171094
KEWR 151551Z 03010KT 10SM FEW020 FEW040 BKN250 M02/M10 A3065 RMK AO2 SLP377 T10221100